Athol, Massachusetts
Current Conditions -  °F | °C
As of 7:52 PM on Friday 31 Oct 2014 (Local Time) from KORE Reporting Station
Overcast Overcast  
Wind Chill: 44°   Ceiling: 3500
Heat Index: 47°   Visibility: 10mi
Dew Point: 36°   Wind: 6mph
Humidity: 66%   Direction: NA
Pressure: 30"   Gusts: NA
Location:  42.59°N, 72.23°W
Report Text: KORE 312352Z AUTO VRB05KT 10SM BKN035 OVC044 08/02 A3000 RMK AO2 SLP162 T00830022 10106 20083 53012
Loading
Personal Weather Stations






























Interactive Weather Map
Tropical Storm Tracking
New forecast layout! Learn more

10-Day Weather Forecast

Advertisements
Track Severe Weather on mobile